Time,TemperatureF,DewpointF,PressureIn,WindDirection,WindDirectionDegrees,WindSpeedMPH,WindSpeedGustMPH,Humidity,HourlyPrecipIn,Conditions,Clouds,dailyrainin,SoftwareType,DateUTC
2013-04-14 00:06:00,39.1,37.0,29.94,SW,224,0.0,0.0,93,0.00,,,0.00,weatherlink.com 1.10,2013-04-14 04:06:00,
2013-04-14 00:21:00,39.5,38.0,29.95,SW,222,0.0,0.0,94,0.00,,,0.00,weatherlink.com 1.10,2013-04-14 04:21:00,
2013-04-14 00:36:00,40.1,38.0,29.96,SSW,208,0.0,0.0,92,0.00,,,0.00,weatherlink.com 1.10,2013-04-14 04:36:00,
2013-04-14 00:51:00,39.9,38.0,29.96,SSW,208,0.0,0.0,92,0.00,,,0.00,weatherlink.com 1.10,2013-04-14 04:51:00,
2013-04-14 01:06:00,40.2,38.0,29.96,SSW,208,0.0,0.0,93,0.00,,,0.00,weatherlink.com 1.10,2013-04-14 05:06:00,
2013-04-14 01:21:00,40.4,38.0,29.96,SSW,208,0.0,0.0,92,0.00,,,0.00,weatherlink.com 1.10,2013-04-14 05:21:00,
2013-04-14 01:36:00,40.5,39.0,29.96,SSW,208,0.0,0.0,93,0.00,,,0.00,weatherlink.com 1.10,2013-04-14 05:36:00,
2013-04-14 01:51:00,40.8,39.0,29.96,SSW,208,0.0,0.0,93,0.00,,,0.00,weatherlink.com 1.10,2013-04-14 05:51:00,
2013-04-14 02:06:00,40.6,39.0,29.96,SSW,208,0.0,0.0,93,0.00,,,0.00,weatherlink.com 1.10,2013-04-14 06:06:00,
2013-04-14 02:21:00,40.4,39.0,29.96,SSW,208,0.0,0.0,93,0.00,,,0.00,weatherlink.com 1.10,2013-04-14 06:21:00,
2013-04-14 02:36:00,41.0,39.0,29.96,SE,131,0.0,0.0,93,0.00,,,0.00,weatherlink.com 1.10,2013-04-14 06:36:00,
2013-04-14 02:51:00,40.9,39.0,29.95,ESE,117,0.0,0.0,93,0.00,,,0.00,weatherlink.com 1.10,2013-04-14 06:51:00,
2013-04-14 03:21:00,40.8,39.0,29.95,ESE,117,0.0,0.0,92,0.00,,,0.00,weatherlink.com 1.10,2013-04-14 07:21:00,
2013-04-14 03:36:00,41.1,39.0,29.95,ESE,117,0.0,0.0,93,0.00,,,0.00,weatherlink.com 1.10,2013-04-14 07:36:00,
2013-04-14 03:51:00,40.8,39.0,29.94,ESE,117,0.0,0.0,92,0.00,,,0.00,weatherlink.com 1.10,2013-04-14 07:51:00,
2013-04-14 04:06:00,40.7,39.0,29.95,ESE,117,0.0,0.0,92,0.00,,,0.00,weatherlink.com 1.10,2013-04-14 08:06:00,
2013-04-14 04:21:00,40.7,39.0,29.95,ESE,117,0.0,0.0,92,0.00,,,0.00,weatherlink.com 1.10,2013-04-14 08:21:00,
2013-04-14 04:36:00,40.5,38.0,29.95,ESE,117,0.0,0.0,91,0.00,,,0.00,weatherlink.com 1.10,2013-04-14 08:36:00,
2013-04-14 04:51:00,39.7,38.0,29.95,ESE,117,0.0,0.0,93,0.00,,,0.00,weatherlink.com 1.10,2013-04-14 08:51:00,
2013-04-14 05:06:00,39.1,37.0,29.96,ESE,117,0.0,0.0,93,0.00,,,0.00,weatherlink.com 1.10,2013-04-14 09:06:00,
2013-04-14 05:21:00,38.7,37.0,29.96,ESE,117,0.0,0.0,94,0.00,,,0.00,weatherlink.com 1.10,2013-04-14 09:21:00,
2013-04-14 05:36:00,38.0,36.0,29.96,ESE,117,0.0,0.0,93,0.00,,,0.00,weatherlink.com 1.10,2013-04-14 09:36:00,
2013-04-14 05:51:00,37.3,36.0,29.96,ESE,117,0.0,0.0,94,0.00,,,0.00,weatherlink.com 1.10,2013-04-14 09:51:00,
2013-04-14 06:06:00,36.1,35.0,29.97,ESE,117,0.0,0.0,94,0.00,,,0.00,weatherlink.com 1.10,2013-04-14 10:06:00,
2013-04-14 06:21:00,36.0,35.0,29.97,ESE,117,0.0,0.0,96,0.00,,,0.00,weatherlink.com 1.10,2013-04-14 10:21:00,
2013-04-14 06:37:00,35.2,34.0,29.98,ESE,117,0.0,0.0,96,0.00,,,0.00,weatherlink.com 1.10,2013-04-14 10:37:00,
2013-04-14 06:52:00,35.1,34.0,29.99,ESE,117,0.0,0.0,96,0.00,,,0.00,weatherlink.com 1.10,2013-04-14 10:52:00,
2013-04-14 07:07:00,35.4,35.0,30.00,ESE,117,0.0,0.0,97,0.00,,,0.00,weatherlink.com 1.10,2013-04-14 11:07:00,
2013-04-14 07:22:00,35.9,35.0,30.00,ESE,117,0.0,0.0,97,0.00,,,0.00,weatherlink.com 1.10,2013-04-14 11:22:00,
2013-04-14 07:37:00,38.6,38.0,30.00,ESE,117,0.0,0.0,97,0.00,,,0.00,weatherlink.com 1.10,2013-04-14 11:37:00,
2013-04-14 07:52:00,41.3,39.0,30.00,East,94,0.0,0.0,90,0.00,,,0.00,weatherlink.com 1.10,2013-04-14 11:52:00,
2013-04-14 08:07:00,46.7,40.0,30.00,WNW,294,0.0,6.0,76,0.00,,,0.00,weatherlink.com 1.10,2013-04-14 12:07:00,
2013-04-14 08:22:00,47.7,37.0,30.02,NNE,23,5.0,6.0,67,0.00,,,0.00,weatherlink.com 1.10,2013-04-14 12:22:00,
2013-04-14 08:37:00,48.2,37.0,30.02,WNW,283,3.0,10.0,65,0.00,,,0.00,weatherlink.com 1.10,2013-04-14 12:37:00,
2013-04-14 08:52:00,48.6,37.0,30.02,West,281,4.0,7.0,64,0.00,,,0.00,weatherlink.com 1.10,2013-04-14 12:52:00,
2013-04-14 09:07:00,48.5,35.0,30.02,WNW,302,4.0,6.0,60,0.00,,,0.00,weatherlink.com 1.10,2013-04-14 13:07:00,
2013-04-14 09:22:00,48.3,35.0,30.03,WNW,300,2.0,9.0,60,0.00,,,0.00,weatherlink.com 1.10,2013-04-14 13:22:00,
2013-04-14 09:37:00,48.0,33.0,30.03,WNW,290,4.0,11.0,57,0.00,,,0.00,weatherlink.com 1.10,2013-04-14 13:37:00,
2013-04-14 09:52:00,47.9,31.0,30.04,West,260,4.0,10.0,53,0.00,,,0.00,weatherlink.com 1.10,2013-04-14 13:52:00,
2013-04-14 10:07:00,49.0,30.0,30.04,West,266,2.0,11.0,49,0.00,,,0.00,weatherlink.com 1.10,2013-04-14 14:07:00,
2013-04-14 10:22:00,49.2,33.0,30.04,NW,304,3.0,10.0,53,0.00,,,0.00,weatherlink.com 1.10,2013-04-14 14:22:00,
2013-04-14 10:37:00,50.9,33.0,30.03,NW,307,5.0,8.0,51,0.00,,,0.00,weatherlink.com 1.10,2013-04-14 14:37:00,
2013-04-14 10:52:00,50.0,31.0,30.04,NW,304,1.0,13.0,49,0.00,,,0.00,weatherlink.com 1.10,2013-04-14 14:52:00,
2013-04-14 11:08:00,50.3,30.0,30.04,NW,321,2.0,8.0,45,0.00,,,0.00,weatherlink.com 1.10,2013-04-14 15:08:00,
2013-04-14 11:22:00,50.7,30.0,30.04,West,261,3.0,6.0,45,0.00,,,0.00,weatherlink.com 1.10,2013-04-14 15:22:00,
2013-04-14 11:37:00,51.1,30.0,30.05,West,273,2.0,17.0,44,0.00,,,0.00,weatherlink.com 1.10,2013-04-14 15:37:00,
2013-04-14 11:52:00,51.6,29.0,30.05,NW,318,3.0,8.0,42,0.00,,,0.00,weatherlink.com 1.10,2013-04-14 15:52:00,
2013-04-14 12:07:00,50.8,29.0,30.05,WNW,287,3.0,10.0,43,0.00,,,0.00,weatherlink.com 1.10,2013-04-14 16:07:00,
2013-04-14 12:22:00,50.2,31.0,30.05,WNW,297,1.0,9.0,48,0.00,,,0.00,weatherlink.com 1.10,2013-04-14 16:22:00,
2013-04-14 12:37:00,50.6,31.0,30.05,NNW,345,2.0,9.0,47,0.00,,,0.00,weatherlink.com 1.10,2013-04-14 16:37:00,
2013-04-14 12:52:00,49.7,28.0,30.05,West,266,6.0,11.0,44,0.00,,,0.00,weatherlink.com 1.10,2013-04-14 16:52:00,
2013-04-14 13:07:00,50.2,29.0,30.05,ENE,67,2.0,8.0,45,0.00,,,0.00,weatherlink.com 1.10,2013-04-14 17:07:00,
2013-04-14 13:22:00,51.0,29.0,30.05,WNW,300,4.0,7.0,43,0.00,,,0.00,weatherlink.com 1.10,2013-04-14 17:22:00,
2013-04-14 13:37:00,51.4,29.0,30.05,WNW,300,4.0,11.0,42,0.00,,,0.00,weatherlink.com 1.10,2013-04-14 17:37:00,
2013-04-14 13:52:00,52.8,29.0,30.05,East,85,1.0,11.0,40,0.00,,,0.00,weatherlink.com 1.10,2013-04-14 17:52:00,
2013-04-14 14:07:00,53.4,28.0,30.05,North,8,3.0,9.0,38,0.00,,,0.00,weatherlink.com 1.10,2013-04-14 18:07:00,
2013-04-14 14:22:00,53.1,29.0,30.05,WNW,301,3.0,10.0,40,0.00,,,0.00,weatherlink.com 1.10,2013-04-14 18:22:00,
2013-04-14 14:37:00,52.7,28.0,30.05,NW,315,4.0,14.0,38,0.00,,,0.00,weatherlink.com 1.10,2013-04-14 18:37:00,
2013-04-14 14:53:00,53.2,29.0,30.05,West,266,3.0,15.0,40,0.00,,,0.00,weatherlink.com 1.10,2013-04-14 18:53:00,
2013-04-14 15:08:00,53.3,29.0,30.06,NW,316,7.0,9.0,39,0.00,,,0.00,weatherlink.com 1.10,2013-04-14 19:08:00,
2013-04-14 15:23:00,52.9,28.0,30.06,NNW,335,2.0,12.0,39,0.00,,,0.00,weatherlink.com 1.10,2013-04-14 19:23:00,
2013-04-14 15:38:00,52.9,28.0,30.06,WNW,288,5.0,14.0,39,0.00,,,0.00,weatherlink.com 1.10,2013-04-14 19:38:00,
2013-04-14 15:53:00,51.5,29.0,30.06,WSW,256,8.0,18.0,42,0.00,,,0.00,weatherlink.com 1.10,2013-04-14 19:53:00,
2013-04-14 16:08:00,50.7,28.0,30.06,WNW,288,6.0,15.0,42,0.00,,,0.00,weatherlink.com 1.10,2013-04-14 20:08:00,
2013-04-14 16:23:00,51.0,28.0,30.07,West,277,7.0,9.0,41,0.00,,,0.00,weatherlink.com 1.10,2013-04-14 20:23:00,
2013-04-14 16:38:00,51.6,28.0,30.07,NW,309,3.0,15.0,40,0.00,,,0.00,weatherlink.com 1.10,2013-04-14 20:38:00,
2013-04-14 16:53:00,51.1,28.0,30.09,NW,324,3.0,14.0,41,0.00,,,0.00,weatherlink.com 1.10,2013-04-14 20:53:00,
2013-04-14 17:08:00,50.7,28.0,30.09,NNW,328,5.0,9.0,42,0.00,,,0.00,weatherlink.com 1.10,2013-04-14 21:08:00,
2013-04-14 17:23:00,50.9,27.0,30.10,NNW,330,7.0,10.0,40,0.00,,,0.00,weatherlink.com 1.10,2013-04-14 21:23:00,
2013-04-14 17:38:00,50.6,27.0,30.10,West,267,4.0,11.0,40,0.00,,,0.00,weatherlink.com 1.10,2013-04-14 21:38:00,
2013-04-14 17:53:00,50.2,28.0,30.11,West,278,1.0,11.0,42,0.00,,,0.00,weatherlink.com 1.10,2013-04-14 21:53:00,
2013-04-14 18:08:00,49.7,27.0,30.11,NW,307,3.0,11.0,42,0.00,,,0.00,weatherlink.com 1.10,2013-04-14 22:08:00,
2013-04-14 18:23:00,49.1,27.0,30.12,NNW,331,6.0,11.0,43,0.00,,,0.00,weatherlink.com 1.10,2013-04-14 22:23:00,
2013-04-14 18:38:00,48.3,27.0,30.12,NNW,329,3.0,8.0,44,0.00,,,0.00,weatherlink.com 1.10,2013-04-14 22:38:00,
2013-04-14 18:53:00,47.9,27.0,30.13,NW,308,5.0,7.0,44,0.00,,,0.00,weatherlink.com 1.10,2013-04-14 22:53:00,
2013-04-14 19:08:00,47.2,28.0,30.13,WNW,288,4.0,6.0,47,0.00,,,0.00,weatherlink.com 1.10,2013-04-14 23:08:00,
2013-04-14 19:23:00,46.9,26.0,30.15,WNW,287,2.0,8.0,45,0.00,,,0.00,weatherlink.com 1.10,2013-04-14 23:23:00,
2013-04-14 19:38:00,46.1,27.0,30.16,ENE,61,7.0,7.0,48,0.00,,,0.00,weatherlink.com 1.10,2013-04-14 23:38:00,
2013-04-14 19:53:00,45.1,27.0,30.17,WNW,294,0.0,3.0,49,0.00,,,0.00,weatherlink.com 1.10,2013-04-14 23:53:00,
2013-04-14 20:08:00,44.3,27.0,30.18,NW,308,0.0,1.0,52,0.00,,,0.00,weatherlink.com 1.10,2013-04-15 00:08:00,
2013-04-14 20:23:00,42.4,28.0,30.19,West,280,0.0,1.0,57,0.00,,,0.00,weatherlink.com 1.10,2013-04-15 00:23:00,
2013-04-14 20:38:00,40.0,28.0,30.20,West,280,0.0,0.0,63,0.00,,,0.00,weatherlink.com 1.10,2013-04-15 00:38:00,
2013-04-14 20:53:00,38.0,29.0,30.20,West,279,0.0,0.0,70,0.00,,,0.00,weatherlink.com 1.10,2013-04-15 00:53:00,
2013-04-14 21:08:00,36.7,29.0,30.21,West,279,0.0,0.0,74,0.00,,,0.00,weatherlink.com 1.10,2013-04-15 01:08:00,
2013-04-14 21:23:00,36.1,29.0,30.21,West,280,0.0,0.0,76,0.00,,,0.00,weatherlink.com 1.10,2013-04-15 01:23:00,
2013-04-14 21:38:00,36.5,30.0,30.22,West,279,0.0,0.0,78,0.00,,,0.00,weatherlink.com 1.10,2013-04-15 01:38:00,
2013-04-14 21:53:00,35.8,30.0,30.21,West,279,0.0,0.0,78,0.00,,,0.00,weatherlink.com 1.10,2013-04-15 01:53:00,
2013-04-14 22:08:00,35.5,30.0,30.21,West,278,0.0,0.0,79,0.00,,,0.00,weatherlink.com 1.10,2013-04-15 02:08:00,
2013-04-14 22:23:00,35.6,30.0,30.22,West,278,0.0,0.0,79,0.00,,,0.00,weatherlink.com 1.10,2013-04-15 02:23:00,
2013-04-14 22:38:00,35.9,30.0,30.22,WNW,295,0.0,0.0,80,0.00,,,0.00,weatherlink.com 1.10,2013-04-15 02:38:00,
2013-04-14 22:53:00,35.4,30.0,30.22,WNW,295,0.0,0.0,80,0.00,,,0.00,weatherlink.com 1.10,2013-04-15 02:53:00,
2013-04-14 23:08:00,34.5,30.0,30.22,WNW,295,0.0,0.0,83,0.00,,,0.00,weatherlink.com 1.10,2013-04-15 03:08:00,
2013-04-14 23:23:00,34.5,30.0,30.22,WNW,295,0.0,0.0,82,0.00,,,0.00,weatherlink.com 1.10,2013-04-15 03:23:00,
2013-04-14 23:38:00,34.4,30.0,30.22,WNW,295,0.0,0.0,85,0.00,,,0.00,weatherlink.com 1.10,2013-04-15 03:38:00,
2013-04-14 23:53:00,35.0,30.0,30.22,WNW,290,0.0,0.0,82,0.00,,,0.00,weatherlink.com 1.10,2013-04-15 03:53:00,